Terminal Aerodrome Forecast
Issued by NWS

Home | Current Version | Previous Version | Text Only | Print | Product List | Glossary On
Versions: 1 2 3 4 5 6 7 8 9 10 11 12 13 14 15 16 17 18 19 20 21
000
FTUS41 KBOX 051123
TAFFMH
TAF
KFMH 051123Z 0512/0612 03013G26KT 3SM -DZ BR OVC004
     FM051300 03014G26KT 3SM -DZ BR VCSH OVC006
     FM051700 03016G32KT 2SM -RA BR OVC004
     FM060600 36010G22KT 3SM BR BKN008
     FM061000 02008KT P6SM VCSH BKN010=

USA.gov is the U.S. government's official web portal to all federal, state and local government web resources and services.